Terminal Aerodrome Forecast
Issued by NWS Cleveland, OH

Home | Current Version | Previous Version | Text Only | Print | Product List | Glossary On
Versions: 1 2 3 4 5 6 7 8 9 10 11 12 13 14 15 16 17 18 19 20 21 22
000
FTUS41 KCLE 241626 AAA
TAFERI
TAF AMD
KERI 241626Z 2416/2512 36007KT P6SM SCT007 OVC012
      TEMPO 2416/2419 5SM -RA BR OVC007
     FM241900 31007KT 6SM -DZ BR OVC007
      TEMPO 2419/2423 4SM -RA BR
     FM242300 27007KT P6SM OVC012
     FM251000 22007KT P6SM OVC020=

USA.gov is the U.S. government's official web portal to all federal, state and local government web resources and services.